createdAt,value
2022-12-14T00:02:04.092Z,91739.03
2022-12-14T00:04:31.985Z,91786.16
2022-12-14T00:06:59.783Z,91804.91
2022-12-14T00:09:27.752Z,91831.38
2022-12-14T00:11:55.641Z,91831.56
2022-12-14T00:14:24.922Z,91862.16
2022-12-14T00:16:52.780Z,91879.16
2022-12-14T00:19:20.526Z,91906.63
2022-12-14T00:21:48.449Z,91916.50
2022-12-14T00:24:16.281Z,91931.50
2022-12-14T00:26:44.626Z,91926.75
2022-12-14T00:29:12.781Z,91921.44
2022-12-14T00:31:42.019Z,91970.22
2022-12-14T00:34:09.734Z,91983.66
2022-12-14T00:36:38.015Z,92004.25
2022-12-14T00:39:06.177Z,91980.88
2022-12-14T00:41:33.985Z,91961.94
2022-12-14T00:44:01.878Z,91980.09
2022-12-14T00:46:29.740Z,92020.03
2022-12-14T00:48:58.899Z,92039.03
2022-12-14T00:51:26.657Z,92030.72
2022-12-14T00:53:54.540Z,92038.22
2022-12-14T00:56:22.607Z,92032.31
2022-12-14T00:58:54.418Z,92064.53
2022-12-14T01:01:22.709Z,92067.47
2022-12-14T01:03:51.018Z,92085.09
2022-12-14T01:06:22.888Z,92063.53
2022-12-14T01:08:50.709Z,92078.56
2022-12-14T01:11:18.886Z,92070.66
2022-12-14T01:13:49.498Z,92121.69
2022-12-14T01:16:19.544Z,92152.34
2022-12-14T01:18:47.560Z,92177.88
2022-12-14T01:21:18.339Z,92200.41
2022-12-14T01:23:49.172Z,92170.53
2022-12-14T01:26:18.709Z,92171.53
2022-12-14T01:28:47.410Z,92228.94
2022-12-14T01:31:17.520Z,92242.78
2022-12-14T01:33:46.023Z,92252.69
2022-12-14T01:36:15.922Z,92281.38
2022-12-14T01:38:44.076Z,92318.03
2022-12-14T01:41:24.415Z,92301.38
2022-12-14T01:43:54.975Z,92326.16
2022-12-14T01:46:29.790Z,92343.78
2022-12-14T01:49:03.304Z,92348.94
2022-12-14T01:51:32.901Z,92343.78
2022-12-14T01:54:03.948Z,92354.47
2022-12-14T01:56:36.307Z,92378.66
2022-12-14T01:59:09.770Z,92365.97
2022-12-14T02:01:38.044Z,92353.09
2022-12-14T02:04:06.647Z,92342.19
2022-12-14T02:06:38.366Z,92345.38
2022-12-14T02:09:09.887Z,92327.53
2022-12-14T02:11:46.264Z,92295.84
2022-12-14T02:14:15.185Z,92304.75
2022-12-14T02:16:47.416Z,92290.69
2022-12-14T02:19:15.194Z,92314.84
2022-12-14T02:21:59.227Z,92304.75
2022-12-14T02:24:49.511Z,92327.16
2022-12-14T02:27:37.093Z,92329.72
2022-12-14T02:30:09.215Z,92346.97
2022-12-14T02:32:55.037Z,92343.00
2022-12-14T02:35:34.396Z,92342.19
2022-12-14T02:38:15.483Z,92336.25
2022-12-14T02:40:52.458Z,92349.53
2022-12-14T02:43:29.184Z,92347.94
2022-12-14T02:46:06.518Z,92330.72
2022-12-14T02:48:40.504Z,92319.81
2022-12-14T02:51:18.442Z,92345.75
2022-12-14T02:53:54.330Z,92351.91
2022-12-14T02:56:29.232Z,92316.63
2022-12-14T02:58:57.854Z,92329.53
2022-12-14T03:01:30.425Z,92331.31
2022-12-14T03:03:58.648Z,92320.44
2022-12-14T03:06:27.352Z,92312.66
2022-12-14T03:08:59.376Z,92318.84
2022-12-14T03:11:35.504Z,92328.75
2022-12-14T03:14:09.183Z,92326.16
2022-12-14T03:16:43.190Z,92329.53
2022-12-14T03:19:18.148Z,92337.06
2022-12-14T03:21:51.837Z,92358.03
2022-12-14T03:24:24.425Z,92393.69
2022-12-14T03:26:57.264Z,92383.41
2022-12-14T03:29:29.324Z,92386.56
2022-12-14T03:32:02.831Z,92391.91
2022-12-14T03:34:36.030Z,92377.66
2022-12-14T03:37:10.557Z,92390.13
2022-12-14T03:39:41.055Z,92400.25
2022-12-14T03:42:18.741Z,92395.09
2022-12-14T03:44:53.538Z,92402.03
2022-12-14T03:47:46.260Z,92404.81
2022-12-14T03:50:19.919Z,92439.69
2022-12-14T03:52:56.074Z,92487.03
2022-12-14T03:55:28.365Z,92471.75
2022-12-14T03:58:19.995Z,92538.00
2022-12-14T04:00:54.758Z,92487.22
2022-12-14T04:03:36.496Z,92478.13
2022-12-14T04:06:09.085Z,92464.63
2022-12-14T04:08:42.469Z,92452.38
2022-12-14T04:11:32.240Z,92479.69
2022-12-14T04:14:25.262Z,92466.41
2022-12-14T04:17:12.883Z,92478.91
2022-12-14T04:19:49.817Z,92477.31
2022-12-14T04:22:22.704Z,92483.06
2022-12-14T04:25:15.310Z,92481.28
2022-12-14T04:27:48.255Z,92487.03
2022-12-14T04:30:15.705Z,92497.16
2022-12-14T04:32:48.341Z,92521.97
2022-12-14T04:35:22.162Z,92523.72
2022-12-14T04:37:53.729Z,92518.75
2022-12-14T04:40:25.405Z,92530.28
2022-12-14T04:43:01.164Z,92532.06
2022-12-14T04:45:34.432Z,92509.00
2022-12-14T04:48:17.255Z,92548.72
2022-12-14T04:50:50.401Z,92557.66
2022-12-14T04:53:23.414Z,92566.16
2022-12-14T04:55:57.552Z,92563.59
2022-12-14T04:58:27.759Z,92557.84
2022-12-14T05:01:12.381Z,92554.66
2022-12-14T05:03:52.507Z,92545.34
2022-12-14T05:06:27.853Z,92587.78
2022-12-14T05:09:11.927Z,92576.47
2022-12-14T05:11:53.761Z,92578.84
2022-12-14T05:14:29.760Z,92570.34
2022-12-14T05:17:03.414Z,92561.03
2022-12-14T05:19:34.609Z,92565.38
2022-12-14T05:22:07.470Z,92564.41
2022-12-14T05:24:35.410Z,92559.44
2022-12-14T05:27:03.179Z,92566.16
2022-12-14T05:29:30.972Z,92548.06
2022-12-14T05:31:59.046Z,92558.44
2022-12-14T05:34:27.198Z,92561.03
2022-12-14T05:36:55.227Z,92575.09
2022-12-14T05:39:24.417Z,92558.44
2022-12-14T05:41:53.368Z,92570.16
2022-12-14T05:44:21.437Z,92564.97
2022-12-14T05:46:49.509Z,92566.78
2022-12-14T05:49:17.439Z,92581.84
2022-12-14T05:51:45.234Z,92583.44
2022-12-14T05:54:13.670Z,92593.53
2022-12-14T05:56:42.781Z,92611.78
2022-12-14T05:59:15.443Z,92636.81
2022-12-14T06:01:43.525Z,92639.81
2022-12-14T06:04:12.104Z,92663.41
2022-12-14T06:06:40.090Z,92668.19
2022-12-14T06:09:08.997Z,92694.97
2022-12-14T06:11:38.821Z,92708.25
2022-12-14T06:14:08.570Z,92724.13
2022-12-14T06:16:37.416Z,92739.22
2022-12-14T06:19:06.312Z,92751.13
2022-12-14T06:21:36.601Z,92762.47
2022-12-14T06:24:05.892Z,92763.66
2022-12-14T06:26:36.786Z,92767.44
2022-12-14T06:29:05.401Z,92807.19
2022-12-14T06:31:38.182Z,92833.78
2022-12-14T06:34:06.704Z,92806.72
2022-12-14T06:36:37.100Z,92851.91
2022-12-14T06:39:08.352Z,92860.44
2022-12-14T06:41:36.259Z,92868.78
2022-12-14T06:44:07.057Z,92861.78
2022-12-14T06:46:37.953Z,92899.41
2022-12-14T06:49:10.297Z,92907.94
2022-12-14T06:51:41.759Z,92903.75
2022-12-14T06:54:14.933Z,92906.94
2022-12-14T06:56:44.291Z,92925.25
2022-12-14T06:59:13.124Z,92916.88
2022-12-14T07:01:43.025Z,92934.38
2022-12-14T07:04:11.091Z,92936.78
2022-12-14T07:06:41.646Z,92948.69
2022-12-14T07:09:14.412Z,92960.25
2022-12-14T07:11:42.462Z,92968.59
2022-12-14T07:14:15.596Z,92957.88
2022-12-14T07:16:48.539Z,92949.28
2022-12-14T07:19:19.748Z,92953.84
2022-12-14T07:21:47.802Z,92961.06
2022-12-14T07:24:17.015Z,92962.03
2022-12-14T07:26:47.059Z,92953.84
2022-12-14T07:29:16.805Z,92987.88
2022-12-14T07:31:49.316Z,92990.28
2022-12-14T07:34:17.735Z,92969.41
2022-12-14T07:36:46.631Z,92967.44
2022-12-14T07:39:15.822Z,92967.00
2022-12-14T07:41:44.709Z,93009.97
2022-12-14T07:44:12.915Z,93010.97
2022-12-14T07:46:42.159Z,93016.75
2022-12-14T07:49:12.200Z,93035.03
2022-12-14T07:51:44.081Z,93054.97
2022-12-14T07:54:13.105Z,93067.50
2022-12-14T07:56:43.020Z,93089.19
2022-12-14T07:59:15.860Z,93101.53
2022-12-14T08:01:45.564Z,93122.41
2022-12-14T08:04:17.266Z,93149.09
2022-12-14T08:06:46.941Z,93155.66
2022-12-14T08:09:15.622Z,93173.22
2022-12-14T08:11:43.752Z,93171.81
2022-12-14T08:14:14.821Z,93173.22
2022-12-14T08:16:42.653Z,93172.59
2022-12-14T08:19:12.199Z,93205.06
2022-12-14T08:21:47.018Z,93188.34
2022-12-14T08:24:16.848Z,93190.13
2022-12-14T08:26:49.321Z,93195.09
2022-12-14T08:29:18.030Z,93205.84
2022-12-14T08:31:45.950Z,93222.78
2022-12-14T08:34:13.736Z,93234.31
2022-12-14T08:36:45.322Z,93244.91
2022-12-14T08:39:13.406Z,93283.56
2022-12-14T08:41:41.216Z,93283.56
2022-12-14T08:44:10.217Z,93280.38
2022-12-14T08:46:39.256Z,93290.31
2022-12-14T08:49:07.079Z,93296.72
2022-12-14T08:51:37.492Z,93323.59
2022-12-14T08:54:06.869Z,93345.28
2022-12-14T08:56:34.786Z,93362.47
2022-12-14T08:59:02.620Z,93381.97
2022-12-14T09:01:34.764Z,93378.44
2022-12-14T09:04:07.867Z,93383.94
2022-12-14T09:06:45.934Z,93428.06
2022-12-14T09:09:16.750Z,93434.44
2022-12-14T09:11:45.096Z,93460.19
2022-12-14T09:14:13.978Z,93467.16
2022-12-14T09:16:42.204Z,93469.56
2022-12-14T09:19:13.034Z,93447.00
2022-12-14T09:21:42.614Z,93434.44
2022-12-14T09:24:11.177Z,93415.50
2022-12-14T09:26:40.940Z,93409.34
2022-12-14T09:29:09.071Z,93417.09
2022-12-14T09:31:37.098Z,93389.38
2022-12-14T09:34:04.989Z,93393.56
2022-12-14T09:36:33.545Z,93411.91
2022-12-14T09:39:01.285Z,93403.91
2022-12-14T09:41:53.197Z,93419.69
2022-12-14T09:44:40.745Z,93417.09
2022-12-14T09:47:17.473Z,93392.97
2022-12-14T09:49:52.001Z,93437.84
2022-12-14T09:52:24.921Z,93455.75
2022-12-14T09:54:55.830Z,93449.59
2022-12-14T09:57:31.863Z,93513.25
2022-12-14T10:00:01.049Z,93526.63
2022-12-14T10:02:47.217Z,93515.66
2022-12-14T10:05:26.210Z,93480.50
2022-12-14T10:08:05.943Z,93458.97
2022-12-14T10:10:39.553Z,93467.34
2022-12-14T10:13:21.018Z,93497.31
2022-12-14T10:15:59.452Z,93512.44
2022-12-14T10:18:59.636Z,93457.00
2022-12-14T10:21:38.517Z,93412.91
2022-12-14T10:24:10.535Z,93406.31
2022-12-14T10:26:45.782Z,93411.31
2022-12-14T10:29:18.899Z,93418.09
2022-12-14T10:31:56.533Z,93442.41
2022-12-14T10:34:29.625Z,93466.34
2022-12-14T10:37:11.249Z,93496.50
2022-12-14T10:39:49.768Z,93518.25
2022-12-14T10:42:24.908Z,93505.69
2022-12-14T10:48:05.591Z,93534.56
2022-12-14T10:50:50.195Z,93529.22
2022-12-14T10:53:23.740Z,93509.88
2022-12-14T10:55:59.591Z,93495.69
2022-12-14T10:58:28.213Z,93522.44
2022-12-14T11:00:57.686Z,93510.84
2022-12-14T11:03:25.883Z,93487.66
2022-12-14T11:06:01.371Z,93484.09
2022-12-14T11:08:41.249Z,93450.59
2022-12-14T11:11:18.673Z,93454.16
2022-12-14T11:13:52.370Z,93421.28
2022-12-14T11:16:33.746Z,93451.31
2022-12-14T11:19:05.829Z,93499.25
2022-12-14T11:21:36.215Z,93525.03
2022-12-14T11:24:05.529Z,93520.81
2022-12-14T11:26:36.878Z,93505.69
2022-12-14T11:29:07.489Z,93512.44
2022-12-14T11:31:39.893Z,93527.41
2022-12-14T11:34:22.314Z,93515.22
2022-12-14T11:36:50.880Z,93532.41
2022-12-14T11:39:24.169Z,93537.59
2022-12-14T11:42:00.957Z,93527.22
2022-12-14T11:44:32.178Z,93485.88
2022-12-14T11:47:08.360Z,93475.09
2022-12-14T11:49:44.386Z,93453.16
2022-12-14T11:52:15.420Z,93422.25
2022-12-14T11:54:49.852Z,93467.34
2022-12-14T11:57:28.677Z,93462.16
2022-12-14T11:59:59.764Z,93449.00
2022-12-14T12:02:33.637Z,93423.88
2022-12-14T12:05:12.080Z,93416.66
2022-12-14T12:07:55.774Z,93417.28
2022-12-14T12:10:28.517Z,93383.94
2022-12-14T12:13:01.010Z,93373.97
2022-12-14T12:15:38.445Z,93336.34
2022-12-14T12:18:18.249Z,93330.56
2022-12-14T12:20:53.743Z,93321.22
2022-12-14T12:23:26.150Z,93315.81
2022-12-14T12:25:56.986Z,93320.59
2022-12-14T12:28:29.441Z,93324.97
2022-12-14T12:31:10.753Z,93331.38
2022-12-14T12:33:48.945Z,93328.97
2022-12-14T12:36:24.013Z,93302.88
2022-12-14T12:39:02.799Z,93281.97
2022-12-14T12:41:41.627Z,93263.00
2022-12-14T12:44:27.081Z,93297.28
2022-12-14T12:49:53.118Z,93267.16
2022-12-14T12:52:28.814Z,93273.75
2022-12-14T12:55:02.183Z,93255.63
2022-12-14T12:57:35.918Z,93243.69
2022-12-14T13:00:07.439Z,93243.69
2022-12-14T13:02:37.824Z,93257.81
2022-12-14T13:05:44.629Z,93238.50
2022-12-14T13:08:06.796Z,93212.00
2022-12-14T13:10:50.472Z,93193.88
2022-12-14T13:13:31.986Z,93161.19
2022-12-14T13:16:07.430Z,93163.00
2022-12-14T13:18:59.479Z,93122.97
2022-12-14T13:21:35.756Z,93125.38
2022-12-14T13:24:06.647Z,93107.44
2022-12-14T13:27:04.518Z,93112.22
2022-12-14T13:29:50.244Z,93138.91
2022-12-14T13:32:37.003Z,93101.47
2022-12-14T13:35:20.558Z,93095.53
2022-12-14T13:38:19.108Z,93077.22
2022-12-14T13:41:04.109Z,93050.53
2022-12-14T13:43:49.595Z,93029.19
2022-12-14T13:46:23.953Z,93006.56
2022-12-14T13:48:55.537Z,93013.91
2022-12-14T13:51:29.999Z,92994.03
2022-12-14T13:54:02.948Z,92941.31
2022-12-14T13:56:37.903Z,92898.38
2022-12-14T13:59:18.011Z,92890.63
2022-12-14T14:02:00.688Z,92885.84
2022-12-14T14:04:30.641Z,92857.63
2022-12-14T14:07:34.873Z,92832.97
2022-12-14T14:10:06.289Z,92841.13
2022-12-14T14:12:40.404Z,92825.03
2022-12-14T14:15:26.660Z,92826.81
2022-12-14T14:17:58.761Z,92819.47
2022-12-14T14:20:42.792Z,92826.22
2022-12-14T14:23:30.861Z,92812.34
2022-12-14T14:26:20.949Z,92811.72
2022-12-14T14:29:05.958Z,92800.22
2022-12-14T14:31:46.406Z,92782.53
2022-12-14T14:34:21.974Z,92804.75
2022-12-14T14:36:51.158Z,92784.91
2022-12-14T14:42:25.568Z,92775.78
2022-12-14T14:44:55.981Z,92779.13
2022-12-14T14:47:27.898Z,92784.13
2022-12-14T14:50:00.692Z,92794.44
2022-12-14T14:53:02.512Z,92774.97
2022-12-14T14:56:11.450Z,92808.53
2022-12-14T14:58:42.182Z,92813.91
2022-12-14T15:01:21.300Z,92838.53
2022-12-14T15:03:58.893Z,92845.47
2022-12-14T15:06:29.801Z,92849.25
2022-12-14T15:09:01.650Z,92832.59
2022-12-14T15:11:37.256Z,92832.59
2022-12-14T15:14:19.189Z,92802.78
2022-12-14T15:16:49.277Z,92790.88
2022-12-14T15:19:27.955Z,92772.59
2022-12-14T15:21:59.682Z,92762.88
2022-12-14T15:24:27.924Z,92776.16
2022-12-14T15:26:55.759Z,92748.75
2022-12-14T15:29:28.411Z,92735.25
2022-12-14T15:32:00.469Z,92751.91
2022-12-14T15:34:29.043Z,92755.28
2022-12-14T15:36:57.685Z,92767.84
2022-12-14T15:39:39.970Z,92761.09
2022-12-14T15:42:15.113Z,92759.50
2022-12-14T15:44:52.695Z,92745.97
2022-12-14T15:47:26.513Z,92757.72
2022-12-14T15:50:00.640Z,92727.69
2022-12-14T15:52:31.936Z,92739.59
2022-12-14T15:55:00.710Z,92745.97
2022-12-14T15:57:28.724Z,92765.06
2022-12-14T15:59:59.156Z,92761.88
2022-12-14T16:02:31.891Z,92765.25
2022-12-14T16:05:04.161Z,92747.75
2022-12-14T16:07:38.520Z,92741.00
2022-12-14T16:10:21.100Z,92751.91
2022-12-14T16:12:51.178Z,92728.69
2022-12-14T16:15:23.958Z,92731.25
2022-12-14T16:18:00.937Z,92742.00
2022-12-14T16:20:35.965Z,92730.88
2022-12-14T16:23:07.261Z,92691.09
2022-12-14T16:25:39.531Z,92730.28
2022-12-14T16:28:23.013Z,92726.13
2022-12-14T16:30:57.425Z,92748.53
2022-12-14T16:33:26.258Z,92749.53
2022-12-14T16:36:08.064Z,92732.84
2022-12-14T16:38:44.656Z,92751.13
2022-12-14T16:41:12.950Z,92723.72
2022-12-14T16:43:42.808Z,92712.03
2022-12-14T16:46:19.212Z,92726.91
2022-12-14T16:49:10.602Z,92717.78
2022-12-14T16:54:31.340Z,92732.66
2022-12-14T16:57:02.909Z,92736.22
2022-12-14T16:59:39.054Z,92750.78
2022-12-14T17:02:25.928Z,92746.97
2022-12-14T17:04:54.225Z,92727.69
2022-12-14T17:07:27.363Z,92724.53
2022-12-14T17:09:56.548Z,92738.00
2022-12-14T17:12:26.143Z,92740.22
2022-12-14T17:14:54.507Z,92727.69
2022-12-14T17:17:29.838Z,92755.28
2022-12-14T17:19:57.742Z,92766.03
2022-12-14T17:22:29.264Z,92744.38
2022-12-14T17:24:59.419Z,92751.13
2022-12-14T17:27:27.803Z,92778.16
2022-12-14T17:29:57.296Z,92726.88
2022-12-14T17:32:30.678Z,92717.38
2022-12-14T17:34:59.545Z,92737.22
2022-12-14T17:37:35.715Z,92716.19
2022-12-14T17:40:05.081Z,92743.59
2022-12-14T17:42:33.103Z,92745.97
2022-12-14T17:45:01.697Z,92727.91
2022-12-14T17:47:32.539Z,92748.53
2022-12-14T17:50:01.726Z,92759.50
2022-12-14T17:52:33.202Z,92779.97
2022-12-14T17:55:01.019Z,92756.91
2022-12-14T17:57:28.852Z,92731.88
2022-12-14T18:00:10.539Z,92732.84
2022-12-14T18:02:42.788Z,92728.50
2022-12-14T18:05:18.999Z,92724.53
2022-12-14T18:07:46.945Z,92721.34
2022-12-14T18:10:19.890Z,92659.44
2022-12-14T18:12:48.069Z,92609.75
2022-12-14T18:15:19.651Z,92617.13
2022-12-14T18:17:49.419Z,92608.22
2022-12-14T18:20:17.838Z,92605.03
2022-12-14T18:22:51.018Z,92578.44
2022-12-14T18:25:30.591Z,92548.66
2022-12-14T18:27:59.382Z,92463.63
2022-12-14T18:30:27.382Z,92425.78
2022-12-14T18:32:58.171Z,92367.53
2022-12-14T18:35:28.614Z,92320.38
2022-12-14T18:37:58.211Z,92258.22
2022-12-14T18:40:28.857Z,92204.56
2022-12-14T18:42:57.376Z,92143.25
2022-12-14T18:45:27.342Z,92129.19
2022-12-14T18:47:56.624Z,92117.09
2022-12-14T18:50:25.558Z,92122.47
2022-12-14T18:52:53.894Z,92137.50
2022-12-14T18:55:24.490Z,92149.78
2022-12-14T18:57:55.366Z,92165.59
2022-12-14T19:00:25.059Z,92202.00
2022-12-14T19:02:59.035Z,92238.03
2022-12-14T19:05:27.231Z,92297.81
2022-12-14T19:07:55.277Z,92334.28
2022-12-14T19:10:26.305Z,92371.09
2022-12-14T19:12:54.810Z,92429.56
2022-12-14T19:15:25.687Z,92448.81
2022-12-14T19:17:54.425Z,92447.56
2022-12-14T19:20:24.423Z,92467.59
2022-12-14T19:22:52.346Z,92479.69
2022-12-14T19:25:21.725Z,92504.28
2022-12-14T19:30:40.735Z,92549.91
2022-12-14T19:33:08.730Z,92574.88
2022-12-14T19:35:41.146Z,92569.72
2022-12-14T19:38:14.368Z,92575.88
2022-12-14T19:40:46.248Z,92571.72
2022-12-14T19:43:15.325Z,92551.50
2022-12-14T19:45:44.603Z,92542.38
2022-12-14T19:48:13.465Z,92539.97
2022-12-14T19:50:42.935Z,92541.56
2022-12-14T19:53:23.184Z,92533.22
2022-12-14T19:55:53.108Z,92539.16
2022-12-14T19:58:22.902Z,92528.25
2022-12-14T20:00:51.766Z,92531.63
2022-12-14T20:03:20.765Z,92530.03
2022-12-14T20:05:56.014Z,92524.28
2022-12-14T20:08:24.104Z,92535.97
2022-12-14T20:10:53.805Z,92526.88
2022-12-14T20:13:23.400Z,92526.06
2022-12-14T20:15:51.706Z,92526.66
2022-12-14T20:18:21.383Z,92510.22
2022-12-14T20:20:50.004Z,92500.72
2022-12-14T20:23:22.169Z,92503.47
2022-12-14T20:25:50.460Z,92492.16
2022-12-14T20:28:18.501Z,92504.28
2022-12-14T20:30:49.548Z,92476.91
2022-12-14T20:33:18.530Z,92487.22
2022-12-14T20:35:46.392Z,92463.44
2022-12-14T20:38:14.156Z,92466.81
2022-12-14T20:40:43.818Z,92465.41
2022-12-14T20:43:11.813Z,92442.06
2022-12-14T20:45:40.048Z,92442.66
2022-12-14T20:48:09.648Z,92482.06
2022-12-14T20:50:39.729Z,92480.88
2022-12-14T20:53:07.910Z,92464.25
2022-12-14T20:55:37.022Z,92471.16
2022-12-14T20:58:06.438Z,92468.41
2022-12-14T21:00:34.488Z,92506.66
2022-12-14T21:03:03.637Z,92486.81
2022-12-14T21:05:31.949Z,92463.44
2022-12-14T21:07:59.996Z,92453.53
2022-12-14T21:10:27.927Z,92436.91
2022-12-14T21:12:55.996Z,92455.13
2022-12-14T21:15:25.757Z,92456.09
2022-12-14T21:17:54.157Z,92475.31
2022-12-14T21:20:23.544Z,92457.69
2022-12-14T21:22:51.353Z,92455.53
2022-12-14T21:25:20.112Z,92458.69
2022-12-14T21:27:48.923Z,92451.16
2022-12-14T21:30:18.430Z,92455.53
2022-12-14T21:32:48.126Z,92444.22
2022-12-14T21:35:18.460Z,92445.25
2022-12-14T21:37:47.497Z,92450.16
2022-12-14T21:40:35.791Z,92445.81
2022-12-14T21:43:04.035Z,92442.06
2022-12-14T21:45:31.937Z,92432.13
2022-12-14T21:48:01.321Z,92418.66
2022-12-14T21:50:29.259Z,92421.63
2022-12-14T21:52:57.034Z,92407.16
2022-12-14T21:55:26.014Z,92399.84
2022-12-14T21:58:11.316Z,92397.25
2022-12-14T22:00:40.463Z,92395.69
2022-12-14T22:03:10.152Z,92367.53
2022-12-14T22:05:39.279Z,92373.09
2022-12-14T22:08:08.496Z,92368.94
2022-12-14T22:10:36.363Z,92373.09
2022-12-14T22:13:05.461Z,92353.28
2022-12-14T22:15:33.694Z,92344.19
2022-12-14T22:18:01.623Z,92343.00
2022-12-14T22:20:30.803Z,92360.81
2022-12-14T22:23:01.438Z,92358.63
2022-12-14T22:25:29.301Z,92344.78
2022-12-14T22:27:59.293Z,92329.13
2022-12-14T22:30:31.627Z,92314.44
2022-12-14T22:33:00.301Z,92294.25
2022-12-14T22:35:28.147Z,92290.28
2022-12-14T22:37:57.382Z,92271.09
2022-12-14T22:40:25.136Z,92263.75
2022-12-14T22:42:54.224Z,92259.81
2022-12-14T22:45:22.596Z,92245.38
2022-12-14T22:47:51.580Z,92248.31
2022-12-14T22:50:19.578Z,92223.19
2022-12-14T22:52:49.557Z,92195.84
2022-12-14T22:55:19.272Z,92198.44
2022-12-14T22:57:48.192Z,92187.75
2022-12-14T23:00:17.572Z,92168.38
2022-12-14T23:02:48.571Z,92157.28
2022-12-14T23:05:17.607Z,92147.00
2022-12-14T23:07:46.859Z,92147.59
2022-12-14T23:10:32.475Z,92142.06
2022-12-14T23:13:19.056Z,92120.50
2022-12-14T23:16:04.628Z,92128.00
2022-12-14T23:18:50.098Z,92107.06
2022-12-14T23:21:35.676Z,92107.41
2022-12-14T23:24:20.977Z,92030.28
2022-12-14T23:27:09.748Z,92061.75
2022-12-14T23:29:57.197Z,92042.56
2022-12-14T23:32:45.072Z,92014.50
2022-12-14T23:35:30.374Z,91982.88
2022-12-14T23:38:15.560Z,91944.34
2022-12-14T23:41:01.739Z,91901.28
2022-12-14T23:43:47.339Z,91844.81
2022-12-14T23:46:33.849Z,91832.16
2022-12-14T23:49:19.579Z,91781.81
2022-12-14T23:52:04.902Z,91728.97
2022-12-14T23:54:50.770Z,91691.88
2022-12-14T23:57:36.330Z,91621.28
